Redlawn, Texas
Current Conditions -  °F | °C
As of 12:55 AM on Friday 28 Nov 2014 (Local Time) from KJSO Reporting Station
Clear Clear  
Wind Chill: 42°   Ceiling: Unl
Heat Index: 45°   Visibility: 10mi
Dew Point: 32°   Wind: 5mph
Humidity: 61%   Direction: 160°SSE
Pressure: 30.39"   Gusts: NA
Location:  31.6384°N, 95.0772°W
Report Text: KJSO 280655Z AUTO 16004KT 10SM CLR 07/00 A3039 RMK AO2 T00700000
Loading
Personal Weather Stations






























Interactive Weather Map New forecast layout! Learn more

10-Day Weather Forecast

Advertisements
Track Severe Weather on mobile